Time;durP1;ratioP1;P1;durP2;ratioP2;P2;SDS_P1;SDS_P2;PMS_P1;PMS_P2;Temp;Humidity;BMP_temperature;BMP_pressure;BME280_temperature;BME280_humidity;BME280_pressure;Samples;Min_cycle;Max_cycle;Signal;HPM_P1;HPM_P2
2023/04/19 04:30:59;;;;;;;45.17;24.05;;;10.40;74.20;;;;;;5634601;23;20054;-77
2023/04/19 04:33:26;;;;;;;46.10;23.95;;;10.40;74.10;;;;;;4938591;29;20058;-77
2023/04/19 04:35:53;;;;;;;39.25;23.00;;;10.40;74.10;;;;;;4938725;28;20036;-76
2023/04/19 04:38:19;;;;;;;40.47;21.90;;;10.40;73.80;;;;;;4938753;29;20028;-77
2023/04/19 04:40:52;;;;;;;46.28;23.45;;;10.40;73.80;;;;;;4933619;29;20267;-77
2023/04/19 04:43:23;;;;;;;45.28;23.27;;;10.40;74.20;;;;;;4936927;29;20042;-77
2023/04/19 04:45:49;;;;;;;42.70;22.67;;;10.30;74.40;;;;;;4938635;29;20031;-77
2023/04/19 04:48:15;;;;;;;42.67;23.75;;;10.30;74.70;;;;;;4938286;29;20499;-77
2023/04/19 04:50:41;;;;;;;51.70;23.23;;;10.30;74.60;;;;;;4938461;29;20035;-77
2023/04/19 04:53:06;;;;;;;47.67;23.88;;;10.30;74.30;;;;;;4938215;29;20070;-77
2023/04/19 04:55:33;;;;;;;49.75;23.45;;;10.30;74.50;;;;;;4937530;29;20035;-77
2023/04/19 04:57:59;;;;;;;47.63;24.50;;;10.30;74.50;;;;;;4938237;28;20027;-77
2023/04/19 05:00:25;;;;;;;48.47;24.13;;;10.30;73.90;;;;;;4957074;28;20431;-77
2023/04/19 05:02:51;;;;;;;50.22;25.80;;;10.30;74.30;;;;;;4952327;28;20082;-77
2023/04/19 05:05:16;;;;;;;47.25;24.95;;;10.30;74.30;;;;;;4957607;29;20047;-77
2023/04/19 05:07:42;;;;;;;47.88;25.60;;;10.30;74.40;;;;;;4956981;29;20035;-77
2023/04/19 05:10:08;;;;;;;45.90;24.65;;;10.30;74.40;;;;;;4936896;29;20031;-77
2023/04/19 05:12:34;;;;;;;47.83;25.38;;;10.30;74.70;;;;;;4956047;29;20031;-77
2023/04/19 05:14:59;;;;;;;48.85;23.95;;;10.30;74.40;;;;;;4958015;29;20035;-77
2023/04/19 05:17:25;;;;;;;46.20;25.48;;;10.30;74.30;;;;;;4940972;29;20019;-77
2023/04/19 05:19:50;;;;;;;45.70;24.45;;;10.30;74.50;;;;;;4964982;28;20023;-77
2023/04/19 05:22:16;;;;;;;47.10;25.08;;;10.30;74.40;;;;;;4928474;29;20095;-77
2023/04/19 05:24:42;;;;;;;48.75;24.38;;;10.30;74.60;;;;;;4938659;29;20032;-77
2023/04/19 05:27:08;;;;;;;42.83;23.85;;;10.30;74.30;;;;;;4938892;29;20027;-77
2023/04/19 05:29:34;;;;;;;42.90;23.25;;;10.30;74.60;;;;;;4942168;29;20041;-77
2023/04/19 05:32:00;;;;;;;50.78;24.50;;;10.30;74.20;;;;;;4939735;29;20044;-77
2023/04/19 05:34:25;;;;;;;53.33;24.85;;;10.30;74.50;;;;;;4951620;29;20035;-77
2023/04/19 05:36:51;;;;;;;46.10;23.90;;;10.30;74.70;;;;;;4946055;29;20479;-77
2023/04/19 05:39:17;;;;;;;45.22;23.10;;;10.30;74.50;;;;;;4946287;29;20477;-77
2023/04/19 05:41:42;;;;;;;42.28;22.98;;;10.30;74.50;;;;;;4938553;29;20491;-77
2023/04/19 05:44:08;;;;;;;50.10;24.13;;;10.40;74.40;;;;;;4938008;29;20040;-77
2023/04/19 05:46:34;;;;;;;40.10;21.75;;;10.40;74.90;;;;;;4938115;29;20085;-77
2023/04/19 05:49:01;;;;;;;41.70;22.33;;;10.40;75.10;;;;;;4937900;29;20439;-77
2023/04/19 05:51:27;;;;;;;46.05;24.05;;;10.40;75.50;;;;;;4937275;29;20095;-77
2023/04/19 05:53:53;;;;;;;39.53;22.75;;;10.50;74.80;;;;;;4938105;29;20028;-77
2023/04/19 05:56:18;;;;;;;45.75;23.52;;;10.50;75.20;;;;;;4937858;29;20095;-77
2023/04/19 05:58:44;;;;;;;46.53;23.55;;;10.50;75.40;;;;;;4938135;29;20062;-77
2023/04/19 06:01:10;;;;;;;45.75;23.27;;;10.60;75.40;;;;;;4945093;29;20027;-77
2023/04/19 06:03:36;;;;;;;40.83;22.48;;;10.60;74.90;;;;;;4952488;29;20559;-77
2023/04/19 06:06:02;;;;;;;40.97;21.73;;;10.60;75.60;;;;;;4955382;28;20122;-77
2023/04/19 06:08:28;;;;;;;45.55;24.02;;;10.70;75.20;;;;;;4956971;29;20031;-77
2023/04/19 06:10:55;;;;;;;44.35;23.77;;;10.80;75.30;;;;;;4955457;29;20043;-77
2023/04/19 06:13:21;;;;;;;38.20;22.70;;;10.80;75.20;;;;;;4936995;29;20028;-77
2023/04/19 06:15:47;;;;;;;41.38;23.77;;;10.80;75.20;;;;;;4937761;28;20122;-77
2023/04/19 06:18:13;;;;;;;40.63;22.52;;;10.80;75.20;;;;;;4929177;29;20039;-77
2023/04/19 06:20:39;;;;;;;38.65;23.45;;;10.90;75.50;;;;;;4956052;29;20027;-77
2023/04/19 06:23:07;;;;;;;41.25;21.67;;;10.90;75.40;;;;;;4956963;29;20122;-77
2023/04/19 06:25:33;;;;;;;45.28;23.75;;;11.00;75.30;;;;;;4946924;29;20114;-77
2023/04/19 06:27:59;;;;;;;43.42;22.85;;;11.00;75.10;;;;;;4936678;29;20070;-77
2023/04/19 06:30:25;;;;;;;45.90;22.58;;;11.10;74.90;;;;;;4940032;28;20019;-77
2023/04/19 06:32:51;;;;;;;43.63;22.02;;;11.10;75.10;;;;;;4975623;28;20039;-78
2023/04/19 06:35:17;;;;;;;42.28;22.45;;;11.20;75.00;;;;;;4966537;28;20023;-81
2023/04/19 06:37:42;;;;;;;44.63;22.52;;;11.20;75.20;;;;;;4966796;28;20489;-79
2023/04/19 06:40:08;;;;;;;41.50;22.15;;;11.20;74.90;;;;;;4959364;29;20035;-78
2023/04/19 06:42:34;;;;;;;41.58;22.00;;;11.30;74.90;;;;;;4972229;28;20033;-78
2023/04/19 06:45:00;;;;;;;41.47;23.00;;;11.30;74.80;;;;;;4941644;28;20035;-82
2023/04/19 06:47:26;;;;;;;46.17;23.08;;;11.40;74.80;;;;;;4930652;29;20035;-79
2023/04/19 06:49:52;;;;;;;43.60;23.90;;;11.50;74.40;;;;;;4940816;29;20491;-78
2023/04/19 06:52:18;;;;;;;40.38;21.20;;;11.70;74.50;;;;;;4952133;28;20079;-78
2023/04/19 06:54:48;;;;;;;39.08;20.55;;;11.80;74.40;;;;;;4940855;29;20027;-81
2023/04/19 06:57:14;;;;;;;37.88;19.55;;;11.80;74.50;;;;;;4940869;29;20510;-83
2023/04/19 06:59:40;;;;;;;38.08;20.92;;;11.90;74.40;;;;;;4938733;29;20035;-81
2023/04/19 07:02:06;;;;;;;40.55;21.33;;;11.90;74.80;;;;;;4940663;29;20036;-84
2023/04/19 07:04:32;;;;;;;35.83;19.88;;;11.90;74.60;;;;;;4942941;29;20038;-80
2023/04/19 07:06:58;;;;;;;38.28;19.30;;;12.00;74.60;;;;;;4946688;28;20498;-82
2023/04/19 07:09:23;;;;;;;39.30;21.33;;;12.00;74.60;;;;;;4944143;28;20080;-83
2023/04/19 07:11:50;;;;;;;39.10;21.48;;;12.00;74.90;;;;;;4967360;28;20042;-86
2023/04/19 07:14:18;;;;;;;36.03;19.30;;;12.10;74.70;;;;;;4946058;28;20026;-88
2023/04/19 07:16:44;;;;;;;37.60;19.05;;;12.20;74.60;;;;;;4947940;28;20521;-88
2023/04/19 07:19:10;;;;;;;36.03;20.45;;;12.30;74.10;;;;;;4964505;28;20038;-87
2023/04/19 07:21:37;;;;;;;38.47;19.88;;;12.30;74.10;;;;;;4969803;28;20478;-87
2023/04/19 07:24:03;;;;;;;34.80;19.08;;;12.30;74.50;;;;;;4943053;28;20023;-85
2023/04/19 07:26:29;;;;;;;32.17;18.55;;;12.80;73.70;;;;;;4940675;28;20071;-87
2023/04/19 07:28:55;;;;;;;33.47;19.73;;;13.30;72.10;;;;;;4949487;28;20612;-88
2023/04/19 07:31:23;;;;;;;29.88;18.52;;;13.80;70.80;;;;;;4951930;28;20464;-87
2023/04/19 07:33:49;;;;;;;30.88;17.67;;;14.20;69.40;;;;;;4969944;28;20031;-87
2023/04/19 07:36:15;;;;;;;31.10;19.00;;;14.20;68.80;;;;;;4963965;28;20121;-84
2023/04/19 07:38:40;;;;;;;30.40;18.15;;;14.30;68.80;;;;;;4967416;28;20031;-87
2023/04/19 07:41:06;;;;;;;28.75;17.08;;;14.30;68.90;;;;;;4963656;28;20173;-88
2023/04/19 07:43:32;;;;;;;25.70;16.88;;;14.40;68.40;;;;;;4951388;28;20034;-82
2023/04/19 07:45:57;;;;;;;29.58;17.00;;;14.80;67.60;;;;;;4966036;28;20102;-84
2023/04/19 07:48:23;;;;;;;25.83;17.17;;;15.00;66.50;;;;;;4951128;28;20027;-83
2023/04/19 07:50:49;;;;;;;26.90;16.63;;;15.30;66.00;;;;;;4949570;28;20027;-85
2023/04/19 07:53:15;;;;;;;23.35;14.45;;;16.40;64.30;;;;;;4967281;28;20046;-86
2023/04/19 07:55:41;;;;;;;25.13;15.80;;;18.20;60.30;;;;;;4969206;28;20442;-85
2023/04/19 07:58:06;;;;;;;21.65;13.07;;;20.80;54.40;;;;;;4963247;28;20054;-85
2023/04/19 08:00:35;;;;;;;20.35;14.95;;;22.50;48.40;;;;;;4967795;28;20474;-81
2023/04/19 08:03:01;;;;;;;19.63;13.93;;;23.90;44.70;;;;;;4966150;28;20023;-85
2023/04/19 08:05:27;;;;;;;18.42;14.55;;;25.00;42.50;;;;;;4952026;28;20055;-88
2023/04/19 08:07:52;;;;;;;18.58;13.93;;;26.30;41.50;;;;;;4956485;28;20031;-85
2023/04/19 08:10:18;;;;;;;18.83;15.07;;;27.00;38.70;;;;;;4957380;28;20038;-84
2023/04/19 08:12:44;;;;;;;15.80;13.98;;;27.70;37.70;;;;;;4943278;28;20034;-79
2023/04/19 08:15:10;;;;;;;18.05;15.13;;;28.30;36.70;;;;;;4957113;28;20036;-85
2023/04/19 08:17:35;;;;;;;15.20;13.52;;;28.80;36.20;;;;;;4957100;28;20047;-87
2023/04/19 08:20:02;;;;;;;15.88;13.43;;;29.20;35.70;;;;;;4966295;28;20098;-84
2023/04/19 08:22:28;;;;;;;18.33;14.10;;;29.50;34.80;;;;;;4966472;28;20029;-82
2023/04/19 08:24:53;;;;;;;15.82;14.18;;;30.10;34.70;;;;;;4938702;28;20122;-85
2023/04/19 08:27:20;;;;;;;14.48;12.48;;;30.20;33.10;;;;;;4964298;28;20039;-82
2023/04/19 08:29:46;;;;;;;14.93;12.98;;;30.40;33.40;;;;;;4965178;28;20023;-88
2023/04/19 08:32:12;;;;;;;16.17;13.82;;;30.60;33.10;;;;;;4948907;28;20051;-79
2023/04/19 08:34:39;;;;;;;14.80;13.00;;;30.60;31.90;;;;;;4964919;28;20131;-88
2023/04/19 08:37:09;;;;;;;16.55;13.55;;;30.90;32.40;;;;;;4946839;28;20035;-88
2023/04/19 08:39:35;;;;;;;16.25;13.88;;;31.10;31.20;;;;;;4949564;28;20113;-88
2023/04/19 08:42:05;;;;;;;15.95;13.27;;;31.20;31.70;;;;;;4964842;28;20050;-88
2023/04/19 08:44:32;;;;;;;15.25;13.07;;;31.20;30.70;;;;;;4968223;28;20031;-86
2023/04/19 08:46:58;;;;;;;15.77;13.40;;;31.30;29.40;;;;;;4965362;28;20038;-87
2023/04/19 08:49:26;;;;;;;14.57;13.02;;;31.30;31.10;;;;;;4945885;28;20027;-84
2023/04/19 08:51:52;;;;;;;12.73;11.38;;;31.30;30.70;;;;;;4961347;28;20019;-84
2023/04/19 08:54:20;;;;;;;14.27;12.15;;;30.30;29.10;;;;;;4964557;28;20027;-85
2023/04/19 08:56:45;;;;;;;15.55;12.70;;;30.30;31.70;;;;;;4961943;28;20028;-85
2023/04/19 08:59:12;;;;;;;13.45;11.27;;;30.70;32.00;;;;;;4964648;28;20110;-84
2023/04/19 09:01:38;;;;;;;14.00;12.43;;;30.80;32.00;;;;;;4948289;28;20490;-84
2023/04/19 09:04:05;;;;;;;13.82;11.48;;;30.40;30.50;;;;;;4938955;29;20023;-84
2023/04/19 09:06:38;;;;;;;15.77;12.18;;;30.50;31.50;;;;;;4959865;28;20026;-84
2023/04/19 09:09:25;;;;;;;14.25;11.77;;;30.90;30.60;;;;;;4955899;28;20863;-83
2023/04/19 09:11:51;;;;;;;12.45;11.15;;;30.90;31.00;;;;;;4940084;29;20058;-84
2023/04/19 09:14:18;;;;;;;11.65;10.45;;;30.10;31.40;;;;;;4960246;28;20038;-84
2023/04/19 09:16:44;;;;;;;13.20;11.10;;;29.90;30.70;;;;;;4964321;28;20069;-84
2023/04/19 09:19:16;;;;;;;12.35;10.93;;;30.30;30.60;;;;;;4945980;28;20066;-83
2023/04/19 09:21:42;;;;;;;12.90;11.15;;;30.80;30.20;;;;;;4962365;28;20031;-84
2023/04/19 09:24:08;;;;;;;13.35;11.13;;;31.10;29.60;;;;;;4949288;28;20046;-83
2023/04/19 09:26:34;;;;;;;14.23;10.93;;;30.00;31.20;;;;;;4956719;28;20150;-85
2023/04/19 09:29:06;;;;;;;13.98;11.55;;;30.50;31.90;;;;;;4948868;28;20562;-86
2023/04/19 09:31:37;;;;;;;12.52;11.25;;;30.70;31.60;;;;;;4962288;28;20053;-80
2023/04/19 09:34:16;;;;;;;14.02;11.98;;;31.10;31.30;;;;;;4931645;28;20035;-80
2023/04/19 09:36:42;;;;;;;14.63;13.13;;;31.30;30.40;;;;;;4945653;28;20031;-80
2023/04/19 09:39:09;;;;;;;13.40;11.57;;;30.60;29.20;;;;;;4965617;28;20062;-79
2023/04/19 09:41:49;;;;;;;12.75;10.88;;;30.70;31.80;;;;;;4964634;28;20125;-79
2023/04/19 09:44:15;;;;;;;13.80;11.10;;;31.00;31.20;;;;;;4939226;28;20082;-80
2023/04/19 09:46:41;;;;;;;14.02;12.60;;;31.30;30.70;;;;;;4958056;28;20086;-77
2023/04/19 09:49:16;;;;;;;13.73;11.32;;;30.60;29.30;;;;;;4967489;28;20035;-77
2023/04/19 09:51:51;;;;;;;16.02;11.88;;;30.60;31.30;;;;;;4961215;28;20058;-78
2023/04/19 09:54:19;;;;;;;12.27;10.93;;;30.80;31.30;;;;;;4960081;28;20054;-79
2023/04/19 09:56:45;;;;;;;13.27;11.63;;;30.80;30.60;;;;;;4940455;28;20035;-76
2023/04/19 09:59:12;;;;;;;13.80;11.40;;;30.60;29.90;;;;;;4965235;28;20031;-80
2023/04/19 10:01:57;;;;;;;14.30;12.73;;;30.50;30.70;;;;;;4962934;28;20024;-79
2023/04/19 10:04:25;;;;;;;15.65;11.18;;;29.60;32.00;;;;;;4959447;28;20069;-79
2023/04/19 10:06:52;;;;;;;15.50;11.95;;;29.90;32.50;;;;;;4946773;28;20042;-76
2023/04/19 10:09:22;;;;;;;13.93;10.75;;;29.70;32.50;;;;;;4963340;28;20031;-80
2023/04/19 10:11:50;;;;;;;14.70;11.43;;;29.60;33.20;;;;;;4960516;28;20372;-82
2023/04/19 10:14:21;;;;;;;14.20;11.82;;;29.70;32.80;;;;;;4964960;28;20028;-83
2023/04/19 10:16:47;;;;;;;12.68;10.90;;;29.40;32.90;;;;;;4963369;28;20498;-88
2023/04/19 10:19:15;;;;;;;14.13;10.90;;;29.30;33.90;;;;;;4954355;28;20035;-81
2023/04/19 10:21:42;;;;;;;12.50;10.70;;;28.00;34.50;;;;;;4949443;28;20034;-83
2023/04/19 10:24:12;;;;;;;12.75;9.63;;;27.30;35.00;;;;;;4964085;28;20110;-83
2023/04/19 10:27:06;;;;;;;14.88;10.77;;;27.00;37.30;;;;;;4956061;28;20042;-83
2023/04/19 10:29:50;;;;;;;13.48;10.63;;;26.40;37.90;;;;;;4952199;28;20087;-79
2023/04/19 10:32:16;;;;;;;13.93;11.38;;;25.70;39.00;;;;;;4960426;28;20506;-81
2023/04/19 10:34:42;;;;;;;15.63;9.95;;;25.30;40.40;;;;;;4954038;29;20058;-83
2023/04/19 10:37:12;;;;;;;13.18;10.27;;;24.90;41.40;;;;;;4962804;28;20031;-81
2023/04/19 10:39:42;;;;;;;15.98;11.07;;;24.60;42.60;;;;;;4955997;28;20034;-86
2023/04/19 10:42:08;;;;;;;13.00;9.52;;;23.90;42.30;;;;;;4936328;29;20059;-83
2023/04/19 10:44:33;;;;;;;12.82;9.93;;;23.80;42.90;;;;;;4941283;29;20521;-84
2023/04/19 10:46:59;;;;;;;16.83;10.70;;;23.30;43.90;;;;;;4940991;29;20035;-80
2023/04/19 10:49:27;;;;;;;12.02;8.90;;;23.20;44.10;;;;;;4941118;29;20027;-82
2023/04/19 10:51:56;;;;;;;14.45;9.95;;;23.00;45.00;;;;;;4940810;29;20039;-81
2023/04/19 10:54:34;;;;;;;14.45;10.43;;;23.00;45.40;;;;;;4941265;29;20047;-81
2023/04/19 10:57:05;;;;;;;13.57;9.27;;;23.00;45.30;;;;;;4939986;29;20038;-81
2023/04/19 10:59:32;;;;;;;13.68;8.95;;;23.00;45.80;;;;;;4938584;29;20039;-78
2023/04/19 11:02:00;;;;;;;14.80;10.02;;;23.00;46.00;;;;;;4970924;28;20042;-80
2023/04/19 11:04:49;;;;;;;13.40;9.55;;;23.00;45.20;;;;;;4974735;28;20139;-81
2023/04/19 11:07:17;;;;;;;13.80;9.37;;;23.10;46.00;;;;;;4937816;28;20111;-81
2023/04/19 11:09:47;;;;;;;13.02;9.13;;;22.80;45.10;;;;;;4932086;29;20039;-86
2023/04/19 11:12:18;;;;;;;14.80;10.48;;;22.30;46.70;;;;;;4943946;29;20055;-83
2023/04/19 11:14:50;;;;;;;13.30;9.05;;;21.80;46.20;;;;;;4948672;28;20023;-79
2023/04/19 11:17:17;;;;;;;13.73;9.13;;;21.60;46.60;;;;;;4946794;29;20023;-82
2023/04/19 11:19:55;;;;;;;13.57;8.80;;;21.50;48.20;;;;;;4959886;28;20516;-87
2023/04/19 11:22:45;;;;;;;12.35;8.27;;;21.50;48.00;;;;;;4939679;29;20031;-87
2023/04/19 11:25:20;;;;;;;13.13;8.38;;;21.70;47.80;;;;;;4933626;29;20043;-85
2023/04/19 11:27:51;;;;;;;11.77;8.05;;;21.80;47.40;;;;;;4940956;29;20046;-87
2023/04/19 11:30:27;;;;;;;12.52;9.10;;;21.70;47.70;;;;;;4943473;28;20027;-91
2023/04/19 11:32:56;;;;;;;13.95;9.60;;;21.50;47.80;;;;;;4953506;28;20030;-91
2023/04/19 11:35:26;;;;;;;12.37;8.17;;;21.50;48.00;;;;;;4939256;29;20145;-92
2023/04/19 11:37:53;;;;;;;11.57;8.25;;;21.80;49.40;;;;;;4936391;29;20278;-93
2023/04/19 11:40:20;;;;;;;14.60;8.55;;;22.10;48.10;;;;;;4942425;28;20031;-92
2023/04/19 11:42:52;;;;;;;11.75;7.93;;;22.20;47.60;;;;;;4957994;28;20137;-92
2023/04/19 11:45:29;;;;;;;12.43;8.38;;;21.90;47.70;;;;;;4973985;28;20031;-92
2023/04/19 11:47:55;;;;;;;12.13;8.55;;;21.90;47.90;;;;;;4961265;29;20039;-91
2023/04/19 11:50:36;;;;;;;12.65;8.13;;;22.20;48.40;;;;;;4944159;29;20034;-92
2023/04/19 11:53:20;;;;;;;12.10;8.30;;;22.30;48.50;;;;;;4943294;29;20027;-91
2023/04/19 11:55:51;;;;;;;13.45;7.65;;;22.50;47.40;;;;;;4942572;29;20026;-91
2023/04/19 11:58:36;;;;;;;13.57;7.95;;;22.60;47.80;;;;;;4943469;29;20042;-93
2023/04/19 12:01:08;;;;;;;11.70;7.43;;;22.40;46.20;;;;;;4951931;29;20486;-93
2023/04/19 12:03:47;;;;;;;10.73;7.30;;;22.30;46.00;;;;;;4949848;29;20039;-93
2023/04/19 12:06:22;;;;;;;11.93;7.80;;;22.30;46.20;;;;;;4947930;29;20051;-93
2023/04/19 12:08:51;;;;;;;11.52;8.75;;;21.90;45.80;;;;;;4928340;29;20078;-92
2023/04/19 12:11:18;;;;;;;11.70;6.70;;;21.60;46.90;;;;;;4958791;29;20110;-92
2023/04/19 12:13:44;;;;;;;10.70;6.38;;;21.60;47.50;;;;;;4944138;29;20721;-94
2023/04/19 12:16:11;;;;;;;9.38;6.00;;;21.80;47.60;;;;;;4960467;29;20058;-88
2023/04/19 12:18:48;;;;;;;9.73;6.95;;;22.20;47.40;;;;;;4953319;28;20031;-93
2023/04/19 12:21:27;;;;;;;9.43;6.80;;;22.30;48.30;;;;;;4941685;29;20036;-94
2023/04/19 12:23:57;;;;;;;9.13;6.38;;;22.50;47.50;;;;;;4938037;29;20033;-88
2023/04/19 12:26:24;;;;;;;9.82;6.53;;;22.60;47.50;;;;;;4923174;29;20032;-88
2023/04/19 12:28:50;;;;;;;7.00;5.07;;;22.30;46.50;;;;;;4934818;29;20408;-88
2023/04/19 12:31:15;;;;;;;7.38;5.10;;;22.30;47.50;;;;;;4957703;28;20059;-88
2023/04/19 12:33:41;;;;;;;6.72;4.70;;;22.40;45.70;;;;;;4952413;29;20023;-89
2023/04/19 12:36:07;;;;;;;8.10;5.70;;;22.50;46.00;;;;;;4955943;29;20470;-89
2023/04/19 12:38:32;;;;;;;7.85;4.97;;;22.30;45.80;;;;;;4948347;29;20114;-88
2023/04/19 12:40:58;;;;;;;7.95;5.07;;;22.00;45.80;;;;;;4922514;29;20502;-88
2023/04/19 12:43:24;;;;;;;6.75;5.47;;;21.80;44.00;;;;;;4947973;29;20035;-87
2023/04/19 12:45:49;;;;;;;7.65;5.38;;;21.80;45.20;;;;;;4944111;29;20035;-86
2023/04/19 12:48:15;;;;;;;8.80;5.95;;;21.90;45.80;;;;;;4957519;29;20094;-86
2023/04/19 12:50:40;;;;;;;7.35;4.78;;;22.00;44.80;;;;;;4939949;29;20035;-87
2023/04/19 12:53:07;;;;;;;6.10;4.18;;;21.80;44.50;;;;;;4953571;29;20205;-85
2023/04/19 12:55:32;;;;;;;5.35;4.55;;;21.70;45.10;;;;;;4939422;29;20031;-86
2023/04/19 12:57:58;;;;;;;7.80;4.50;;;21.80;43.80;;;;;;4939782;29;20042;-86
2023/04/19 13:00:24;;;;;;;4.60;3.45;;;21.60;43.20;;;;;;4957443;29;20031;-86
2023/04/19 13:02:49;;;;;;;6.43;4.03;;;21.60;42.30;;;;;;4949980;29;20039;-87
2023/04/19 13:05:15;;;;;;;7.47;4.22;;;21.80;43.40;;;;;;4934059;29;20066;-85
2023/04/19 13:07:41;;;;;;;5.78;4.28;;;21.80;43.80;;;;;;4945065;29;20039;-86
2023/04/19 13:10:07;;;;;;;4.85;3.30;;;21.90;43.40;;;;;;4940640;29;20060;-85
2023/04/19 13:12:32;;;;;;;6.18;4.07;;;21.90;42.90;;;;;;4957325;29;20069;-85
2023/04/19 13:14:58;;;;;;;5.55;3.72;;;21.80;43.10;;;;;;4957389;29;20019;-86
2023/04/19 13:17:24;;;;;;;5.97;3.42;;;21.90;42.90;;;;;;4924918;29;20039;-86
2023/04/19 13:19:49;;;;;;;6.68;4.25;;;22.00;44.20;;;;;;4951452;29;20395;-85
2023/04/19 13:22:15;;;;;;;6.30;3.65;;;22.00;43.90;;;;;;4951566;28;20038;-86
2023/04/19 13:24:41;;;;;;;6.85;4.47;;;22.30;45.10;;;;;;4922971;29;20086;-85
2023/04/19 13:27:07;;;;;;;8.18;5.18;;;22.20;44.20;;;;;;4920281;29;20039;-85
2023/04/19 13:29:32;;;;;;;5.70;4.35;;;22.00;44.00;;;;;;4936365;29;20027;-84
2023/04/19 13:31:58;;;;;;;6.30;4.35;;;21.80;43.60;;;;;;4957462;28;20054;-84
2023/04/19 13:34:24;;;;;;;8.25;4.30;;;21.60;44.40;;;;;;4945508;29;20030;-84
2023/04/19 13:36:49;;;;;;;7.97;4.53;;;21.50;44.50;;;;;;4939557;29;20027;-84
2023/04/19 13:39:16;;;;;;;6.57;4.20;;;21.60;44.40;;;;;;4943945;29;20115;-83
2023/04/19 13:41:41;;;;;;;6.28;4.20;;;21.70;44.80;;;;;;4939230;28;20122;-83
2023/04/19 13:44:07;;;;;;;5.53;3.90;;;21.80;43.20;;;;;;4947937;28;20113;-85
2023/04/19 13:46:32;;;;;;;4.38;3.70;;;22.10;42.80;;;;;;4954787;29;20031;-85
2023/04/19 13:48:58;;;;;;;6.82;3.67;;;22.20;42.60;;;;;;4942789;29;20035;-85
2023/04/19 13:51:25;;;;;;;4.90;3.65;;;22.40;43.40;;;;;;4955665;29;20028;-85
2023/04/19 13:53:52;;;;;;;4.40;3.53;;;22.50;44.00;;;;;;4944672;29;20078;-84
2023/04/19 13:56:17;;;;;;;6.72;3.67;;;22.30;41.90;;;;;;4924672;29;20039;-85
2023/04/19 13:58:43;;;;;;;5.72;3.65;;;22.40;42.20;;;;;;4950740;29;20034;-84
2023/04/19 14:01:09;;;;;;;4.93;3.78;;;22.40;41.50;;;;;;4941023;28;20071;-84
2023/04/19 14:03:35;;;;;;;4.40;3.53;;;22.50;41.50;;;;;;4957685;28;21346;-84
2023/04/19 14:06:00;;;;;;;5.25;3.80;;;22.50;42.40;;;;;;4971232;28;20035;-85
2023/04/19 14:08:26;;;;;;;5.68;4.07;;;22.40;41.80;;;;;;4957192;28;20035;-85
2023/04/19 14:10:52;;;;;;;4.80;3.15;;;22.30;40.90;;;;;;4947654;29;20038;-85
2023/04/19 14:13:18;;;;;;;3.60;2.70;;;22.20;41.60;;;;;;4938226;29;20024;-84
2023/04/19 14:15:43;;;;;;;5.30;3.08;;;22.10;42.50;;;;;;4931959;29;20035;-84
2023/04/19 14:18:09;;;;;;;7.38;3.10;;;22.20;41.90;;;;;;4947873;29;20807;-84
2023/04/19 14:20:35;;;;;;;5.07;3.60;;;22.20;41.40;;;;;;4942953;29;20039;-84
2023/04/19 14:23:00;;;;;;;4.57;3.53;;;22.30;40.90;;;;;;4941979;29;20513;-84
2023/04/19 14:25:26;;;;;;;5.18;3.30;;;22.50;40.20;;;;;;4942677;29;20066;-84
2023/04/19 14:27:52;;;;;;;5.45;3.15;;;22.70;40.70;;;;;;4956080;29;20032;-83
2023/04/19 14:30:19;;;;;;;6.43;3.70;;;22.70;41.70;;;;;;4974058;28;20205;-84
2023/04/19 14:32:44;;;;;;;4.50;3.00;;;22.80;39.80;;;;;;4955787;29;20392;-84
2023/04/19 14:35:10;;;;;;;4.50;2.92;;;22.80;40.10;;;;;;4949084;29;20027;-84
2023/04/19 14:37:37;;;;;;;4.97;3.30;;;22.80;40.40;;;;;;4960373;29;20558;-84
2023/04/19 14:40:03;;;;;;;4.25;3.40;;;22.80;39.60;;;;;;4952527;29;20090;-84
2023/04/19 14:42:29;;;;;;;5.28;3.38;;;22.70;40.20;;;;;;4946007;29;20031;-84
2023/04/19 14:44:56;;;;;;;5.03;3.17;;;22.70;41.30;;;;;;4953622;29;20078;-83
2023/04/19 14:47:22;;;;;;;4.13;3.25;;;22.80;40.50;;;;;;4946559;29;20039;-86
2023/04/19 14:49:48;;;;;;;5.07;2.70;;;22.90;40.80;;;;;;4939296;29;20031;-88
2023/04/19 14:52:14;;;;;;;4.63;3.15;;;22.80;40.80;;;;;;4938965;29;20024;-87
2023/04/19 14:54:40;;;;;;;5.57;3.50;;;22.80;39.30;;;;;;4935058;29;20038;-88
2023/04/19 14:57:06;;;;;;;4.97;3.30;;;22.60;38.30;;;;;;4939186;29;20439;-82
2023/04/19 14:59:31;;;;;;;5.50;3.10;;;22.50;39.60;;;;;;4956288;29;20122;-87
2023/04/19 15:01:57;;;;;;;3.97;2.70;;;22.40;40.20;;;;;;4959492;29;20585;-84
2023/04/19 15:04:23;;;;;;;4.10;2.67;;;22.20;40.70;;;;;;4942288;29;20031;-81
2023/04/19 15:06:48;;;;;;;4.20;2.97;;;22.20;40.10;;;;;;4945671;28;20034;-81
2023/04/19 15:09:15;;;;;;;3.03;2.72;;;22.30;40.10;;;;;;4958334;28;20035;-81
2023/04/19 15:11:40;;;;;;;4.15;2.97;;;22.50;40.00;;;;;;4956176;29;20027;-81
2023/04/19 15:14:06;;;;;;;4.07;2.75;;;22.70;40.00;;;;;;4955121;28;20131;-81
2023/04/19 15:16:31;;;;;;;3.90;2.75;;;22.90;39.30;;;;;;4948687;29;20027;-81
2023/04/19 15:18:57;;;;;;;4.90;3.22;;;23.30;40.20;;;;;;4953823;29;20042;-81
2023/04/19 15:21:23;;;;;;;3.25;2.45;;;23.10;38.20;;;;;;4956253;29;20046;-80
2023/04/19 15:23:48;;;;;;;3.35;2.38;;;22.80;39.60;;;;;;4959167;29;20166;-81
2023/04/19 15:26:15;;;;;;;3.75;2.63;;;22.60;40.40;;;;;;4950339;29;20158;-81
2023/04/19 15:28:40;;;;;;;4.95;2.30;;;22.30;39.00;;;;;;4948389;29;20066;-80
2023/04/19 15:31:07;;;;;;;3.45;2.22;;;22.10;39.50;;;;;;4964939;28;20087;-80
2023/04/19 15:33:34;;;;;;;6.25;2.88;;;22.00;40.80;;;;;;4936023;29;20031;-80
2023/04/19 15:36:00;;;;;;;4.93;2.88;;;22.00;41.40;;;;;;4940984;29;20026;-80
2023/04/19 15:38:28;;;;;;;3.42;2.60;;;21.90;41.00;;;;;;4958959;29;20454;-80
2023/04/19 15:40:55;;;;;;;2.88;2.15;;;21.80;41.00;;;;;;4941857;29;20027;-81
2023/04/19 15:43:21;;;;;;;4.10;2.80;;;21.80;42.50;;;;;;4966841;28;20453;-80
2023/04/19 15:45:47;;;;;;;4.50;2.83;;;21.70;42.90;;;;;;4952093;28;20530;-76
2023/04/19 15:48:12;;;;;;;3.88;2.65;;;21.70;42.40;;;;;;4968993;28;20046;-81
2023/04/19 15:50:38;;;;;;;4.95;2.88;;;21.70;43.00;;;;;;4977532;28;20090;-82
2023/04/19 15:53:05;;;;;;;4.03;2.83;;;21.80;43.10;;;;;;4969131;28;20024;-82
2023/04/19 15:55:35;;;;;;;4.78;2.72;;;21.80;43.00;;;;;;4940000;29;20391;-82
2023/04/19 15:58:02;;;;;;;4.03;2.70;;;22.20;42.60;;;;;;4939950;29;20027;-82
2023/04/19 16:00:27;;;;;;;5.65;2.75;;;22.30;41.80;;;;;;4939792;29;20054;-84
2023/04/19 16:02:53;;;;;;;3.30;2.55;;;22.50;40.80;;;;;;4944124;29;20046;-85
2023/04/19 16:05:19;;;;;;;3.58;2.65;;;22.60;40.60;;;;;;4957250;29;20385;-84
2023/04/19 16:07:44;;;;;;;3.60;2.83;;;22.80;41.20;;;;;;4959968;28;20035;-83
2023/04/19 16:10:11;;;;;;;3.97;2.65;;;22.90;40.90;;;;;;4941071;28;20102;-83
2023/04/19 16:12:37;;;;;;;4.00;2.78;;;22.80;39.30;;;;;;4956320;29;20035;-83
2023/04/19 16:15:04;;;;;;;3.80;2.45;;;22.40;40.50;;;;;;4957672;28;20016;-84
2023/04/19 16:17:30;;;;;;;3.58;2.90;;;22.30;41.40;;;;;;4948625;28;20031;-84
2023/04/19 16:19:55;;;;;;;4.72;3.00;;;22.20;41.60;;;;;;4941262;29;20039;-84
2023/04/19 16:22:22;;;;;;;3.83;3.20;;;22.10;42.40;;;;;;4958452;29;20039;-84
2023/04/19 16:24:47;;;;;;;3.88;2.92;;;22.20;42.70;;;;;;4943148;28;20099;-84
2023/04/19 16:27:13;;;;;;;4.97;3.47;;;22.20;43.20;;;;;;4939297;28;20040;-83
2023/04/19 16:29:38;;;;;;;9.95;4.47;;;22.20;42.90;;;;;;4934885;28;20059;-83
2023/04/19 16:32:05;;;;;;;5.35;4.45;;;22.30;43.50;;;;;;4949731;29;20227;-83
2023/04/19 16:34:30;;;;;;;5.18;2.95;;;22.20;43.80;;;;;;4954631;28;20035;-83
2023/04/19 16:36:56;;;;;;;5.43;3.45;;;22.10;43.10;;;;;;4925961;29;20046;-84
2023/04/19 16:39:22;;;;;;;6.43;4.50;;;22.20;44.00;;;;;;4954834;29;20024;-84
2023/04/19 16:41:48;;;;;;;5.03;3.80;;;22.30;43.30;;;;;;4941329;28;20159;-85
2023/04/19 16:44:14;;;;;;;5.20;3.50;;;22.50;43.00;;;;;;4957290;29;20390;-83
2023/04/19 16:46:39;;;;;;;6.38;3.53;;;22.60;43.00;;;;;;4939834;28;20046;-84
2023/04/19 16:49:06;;;;;;;5.78;3.80;;;22.80;43.10;;;;;;4957799;29;20106;-84
2023/04/19 16:51:31;;;;;;;4.75;3.33;;;22.70;41.60;;;;;;4944697;28;20031;-83
2023/04/19 16:53:57;;;;;;;6.35;4.35;;;22.60;42.00;;;;;;4965503;28;20014;-84
2023/04/19 16:56:23;;;;;;;5.28;3.45;;;22.40;42.10;;;;;;4977460;28;20031;-83
2023/04/19 16:58:49;;;;;;;5.72;3.22;;;22.20;42.10;;;;;;4939692;28;20031;-83
2023/04/19 17:01:15;;;;;;;6.05;3.97;;;22.10;42.70;;;;;;4938446;29;20031;-83
2023/04/19 17:03:40;;;;;;;5.45;3.38;;;21.80;43.30;;;;;;4942973;28;20035;-83
2023/04/19 17:06:06;;;;;;;4.75;3.47;;;21.70;44.00;;;;;;4955301;28;20042;-84